Time;durP1;ratioP1;P1;durP2;ratioP2;P2;SDS_P1;SDS_P2;PMS_P1;PMS_P2;Temp;Humidity;BMP_temperature;BMP_pressure;BME280_temperature;BME280_humidity;BME280_pressure;Samples;Min_cycle;Max_cycle;Signal;HPM_P1;HPM_P2
2022/12/17 13:07:29;;;;;;;19.93;13.33;;;4.00;99.90;;;;;;5074045;28;20641;-76
2022/12/17 13:10:06;;;;;;;20.90;12.97;;;4.00;99.90;;;;;;5072847;28;20187;-77
2022/12/17 13:12:43;;;;;;;17.10;13.03;;;3.90;99.90;;;;;;5073105;28;20163;-81
2022/12/17 13:15:17;;;;;;;19.40;12.93;;;3.80;99.90;;;;;;5074817;28;20169;-79
2022/12/17 13:18:13;;;;;;;17.30;12.27;;;3.90;99.90;;;;;;5074041;28;20199;-80
2022/12/17 13:20:39;;;;;;;18.87;13.13;;;3.80;99.90;;;;;;5073773;28;20530;-81
2022/12/17 13:23:10;;;;;;;18.33;12.40;;;3.80;99.90;;;;;;5070726;28;21501;-79
2022/12/17 13:25:37;;;;;;;17.23;12.13;;;3.90;99.90;;;;;;5071528;28;20173;-78
2022/12/17 13:28:04;;;;;;;19.27;12.53;;;3.80;99.90;;;;;;5073342;28;20168;-81
2022/12/17 13:30:55;;;;;;;16.07;11.70;;;3.90;99.90;;;;;;5072554;28;20215;-78
2022/12/17 13:33:34;;;;;;;14.40;11.57;;;3.80;99.90;;;;;;5072543;28;20704;-79
2022/12/17 13:36:09;;;;;;;16.17;11.17;;;3.80;99.90;;;;;;5074543;28;20198;-79
2022/12/17 13:38:41;;;;;;;9.33;7.80;;;3.80;99.90;;;;;;5073617;28;20666;-78
2022/12/17 13:41:16;;;;;;;9.50;6.90;;;3.70;99.90;;;;;;5073546;28;20242;-78
2022/12/17 13:44:11;;;;;;;9.30;7.30;;;3.80;99.90;;;;;;5073939;28;20160;-80
2022/12/17 13:46:47;;;;;;;10.60;8.17;;;3.80;99.90;;;;;;5031514;28;20184;-83
2022/12/17 13:49:38;;;;;;;11.17;8.30;;;3.80;99.90;;;;;;5032477;28;20171;-81
2022/12/17 13:52:15;;;;;;;8.27;7.43;;;3.70;99.90;;;;;;5020759;28;20672;-81
2022/12/17 13:54:41;;;;;;;10.87;8.03;;;3.70;99.90;;;;;;5017824;28;20211;-83
2022/12/17 13:57:23;;;;;;;11.70;8.63;;;3.70;99.90;;;;;;5015308;28;20233;-84
2022/12/17 13:59:51;;;;;;;9.60;7.83;;;3.70;99.90;;;;;;5035971;28;20171;-82
2022/12/17 14:02:31;;;;;;;11.70;8.33;;;3.70;99.90;;;;;;5032250;28;20176;-80
2022/12/17 14:05:02;;;;;;;15.63;9.50;;;3.70;99.90;;;;;;5031242;28;20191;-79
2022/12/17 14:07:29;;;;;;;18.50;10.60;;;3.70;99.90;;;;;;5029921;28;20729;-80
2022/12/17 14:09:56;;;;;;;15.33;10.53;;;3.60;99.90;;;;;;5013839;28;20300;-79
2022/12/17 14:12:26;;;;;;;16.13;10.33;;;3.60;99.90;;;;;;5013924;28;20205;-77
2022/12/17 14:14:59;;;;;;;11.13;8.10;;;3.50;99.90;;;;;;5033342;28;20172;-78
2022/12/17 14:17:28;;;;;;;12.27;7.83;;;3.60;99.90;;;;;;5031963;28;20291;-78
2022/12/17 14:20:01;;;;;;;9.83;7.57;;;3.50;99.90;;;;;;5029075;28;20245;-80
2022/12/17 14:22:46;;;;;;;8.73;6.40;;;3.50;99.90;;;;;;5034811;28;20177;-78
2022/12/17 14:25:24;;;;;;;8.03;6.37;;;3.50;99.90;;;;;;5072448;28;20166;-80
2022/12/17 14:28:02;;;;;;;8.03;7.00;;;3.50;99.90;;;;;;5072230;28;20170;-79
2022/12/17 14:30:34;;;;;;;10.00;7.83;;;3.50;99.90;;;;;;5072117;28;20205;-78
2022/12/17 14:33:00;;;;;;;11.93;9.03;;;3.40;99.90;;;;;;5072450;28;20220;-80
2022/12/17 14:35:39;;;;;;;12.67;9.70;;;3.40;99.90;;;;;;5072178;28;20645;-84
2022/12/17 14:38:04;;;;;;;13.87;9.57;;;3.30;99.90;;;;;;5072370;28;20175;-82
2022/12/17 14:40:30;;;;;;;19.60;12.03;;;3.30;99.90;;;;;;5072325;28;20171;-81
2022/12/17 14:43:00;;;;;;;17.53;11.63;;;3.20;99.90;;;;;;5072291;28;20164;-80
2022/12/17 14:45:27;;;;;;;21.43;13.13;;;3.20;99.90;;;;;;5069989;28;20299;-81
2022/12/17 14:47:58;;;;;;;18.33;12.30;;;3.10;99.90;;;;;;5073562;28;20167;-83
2022/12/17 14:50:28;;;;;;;16.10;11.67;;;3.10;99.90;;;;;;5072466;28;20217;-81
2022/12/17 14:52:55;;;;;;;21.10;13.27;;;3.10;99.90;;;;;;5072406;28;20203;-81
2022/12/17 14:55:38;;;;;;;19.10;12.07;;;3.00;99.90;;;;;;5072298;28;20565;-83
2022/12/17 14:58:10;;;;;;;19.40;12.53;;;2.90;99.90;;;;;;5072543;28;20652;-79
2022/12/17 15:00:41;;;;;;;19.87;13.40;;;2.90;99.90;;;;;;5071093;28;20173;-80
2022/12/17 15:03:21;;;;;;;18.50;12.67;;;2.90;99.90;;;;;;5071362;28;20167;-77
2022/12/17 15:05:54;;;;;;;16.97;12.40;;;2.80;99.90;;;;;;5072004;28;20166;-77
2022/12/17 15:08:20;;;;;;;18.10;12.67;;;2.90;99.90;;;;;;5071995;28;20284;-77
2022/12/17 15:10:46;;;;;;;17.03;12.07;;;2.80;99.90;;;;;;5070849;28;20208;-77
2022/12/17 15:13:12;;;;;;;17.87;12.73;;;2.80;99.90;;;;;;5072751;28;20523;-76
2022/12/17 15:15:37;;;;;;;20.10;12.87;;;2.80;99.90;;;;;;5072962;28;20197;-77
2022/12/17 15:18:03;;;;;;;20.13;13.30;;;2.80;99.90;;;;;;5073423;28;20213;-79
2022/12/17 15:20:30;;;;;;;18.87;13.07;;;2.90;99.90;;;;;;5073119;28;20180;-76
2022/12/17 15:22:55;;;;;;;19.43;13.30;;;3.00;99.90;;;;;;5071317;28;20200;-76
2022/12/17 15:25:21;;;;;;;18.50;12.40;;;2.90;99.90;;;;;;5073147;28;20167;-78
2022/12/17 15:27:47;;;;;;;18.50;11.87;;;2.90;99.90;;;;;;5073870;28;20236;-80
2022/12/17 15:30:15;;;;;;;17.60;12.50;;;3.00;99.90;;;;;;5075951;28;20566;-81
2022/12/17 15:32:41;;;;;;;18.77;12.20;;;2.90;99.90;;;;;;5072425;28;20202;-81
2022/12/17 15:35:08;;;;;;;19.50;13.13;;;3.00;99.90;;;;;;5072842;28;20255;-76
2022/12/17 15:37:33;;;;;;;21.17;12.90;;;3.00;99.90;;;;;;5075786;28;20174;-80
2022/12/17 15:40:03;;;;;;;20.53;12.43;;;2.90;99.90;;;;;;5087882;28;20261;-81
2022/12/17 15:45:14;;;;;;;19.70;13.37;;;3.00;99.90;;;;;;5073962;28;20654;-81
2022/12/17 15:47:39;;;;;;;19.73;12.83;;;3.00;99.90;;;;;;5073252;28;20177;-82
2022/12/17 15:50:06;;;;;;;20.87;14.83;;;3.10;99.90;;;;;;5072989;28;20206;-84
2022/12/17 15:52:32;;;;;;;20.23;13.90;;;3.10;99.90;;;;;;5073947;28;20215;-84
2022/12/17 15:55:03;;;;;;;20.47;13.67;;;3.00;99.90;;;;;;5073180;28;20252;-83
2022/12/17 15:57:29;;;;;;;18.60;12.83;;;3.00;99.90;;;;;;5076875;28;20158;-84
2022/12/17 15:59:55;;;;;;;22.13;14.10;;;3.00;99.90;;;;;;5074949;28;20539;-82
2022/12/17 16:02:20;;;;;;;18.57;12.87;;;3.00;99.90;;;;;;5077595;28;20184;-82
2022/12/17 16:04:49;;;;;;;19.40;13.13;;;3.00;99.90;;;;;;5077645;28;20201;-82
2022/12/17 16:07:20;;;;;;;21.63;12.77;;;2.90;99.90;;;;;;5079881;28;20257;-82
2022/12/17 16:09:46;;;;;;;19.93;13.57;;;3.00;99.90;;;;;;5080892;28;20201;-78
2022/12/17 16:12:12;;;;;;;20.13;12.80;;;2.90;99.90;;;;;;5078112;28;20260;-81
2022/12/17 16:14:38;;;;;;;19.83;13.23;;;3.00;99.90;;;;;;5077087;28;20186;-82
2022/12/17 16:17:03;;;;;;;18.93;12.23;;;3.10;99.90;;;;;;5077399;28;20215;-82
2022/12/17 16:19:29;;;;;;;21.10;13.47;;;3.10;99.90;;;;;;5075282;28;20174;-82
2022/12/17 16:21:55;;;;;;;22.37;14.37;;;3.10;99.90;;;;;;5074377;28;20180;-82
2022/12/17 16:24:22;;;;;;;21.23;13.30;;;3.10;99.90;;;;;;5074440;28;20186;-77
2022/12/17 16:26:48;;;;;;;19.20;13.20;;;3.10;99.90;;;;;;5075485;28;20681;-81
2022/12/17 16:29:17;;;;;;;22.03;13.50;;;3.00;99.90;;;;;;5074248;28;20181;-80
2022/12/17 16:31:45;;;;;;;20.57;14.00;;;3.10;99.90;;;;;;5071959;28;20219;-80
2022/12/17 16:34:11;;;;;;;21.43;13.50;;;3.10;99.90;;;;;;5075557;28;20171;-77
2022/12/17 16:36:38;;;;;;;24.17;14.67;;;3.00;99.90;;;;;;5073825;28;20175;-80
2022/12/17 16:39:04;;;;;;;21.70;13.93;;;2.90;99.90;;;;;;5073842;28;20175;-79
2022/12/17 16:41:30;;;;;;;24.53;13.63;;;3.00;99.90;;;;;;5075165;28;20172;-84
2022/12/17 16:43:56;;;;;;;23.53;15.03;;;3.00;99.90;;;;;;5077127;28;20242;-78
2022/12/17 16:46:28;;;;;;;22.60;14.27;;;2.90;99.90;;;;;;5081216;28;20201;-78
2022/12/17 16:48:56;;;;;;;22.47;13.77;;;2.80;99.90;;;;;;5073848;28;20237;-80
2022/12/17 16:51:24;;;;;;;25.30;14.73;;;2.70;99.90;;;;;;5074023;28;20208;-79
2022/12/17 16:53:50;;;;;;;19.30;13.87;;;2.80;99.90;;;;;;5073190;28;20173;-81
2022/12/17 16:56:24;;;;;;;21.60;13.57;;;2.90;99.90;;;;;;5072966;28;20196;-80
2022/12/17 16:58:51;;;;;;;26.77;15.83;;;2.90;99.90;;;;;;5075551;28;20212;-83
2022/12/17 17:01:26;;;;;;;22.53;13.87;;;2.90;99.90;;;;;;5074245;28;20178;-77
2022/12/17 17:03:53;;;;;;;22.10;14.20;;;2.90;99.90;;;;;;5075844;28;20174;-77
2022/12/17 17:06:19;;;;;;;23.13;14.13;;;2.90;99.90;;;;;;5077891;28;20185;-80
2022/12/17 17:08:45;;;;;;;22.03;13.93;;;2.90;99.90;;;;;;5078361;28;20159;-77
2022/12/17 17:11:18;;;;;;;25.43;14.20;;;2.90;99.90;;;;;;5072546;28;20207;-81
2022/12/17 17:13:44;;;;;;;22.30;14.53;;;2.90;99.90;;;;;;5074291;28;20246;-78
2022/12/17 17:16:12;;;;;;;24.07;14.43;;;2.90;99.90;;;;;;5073861;28;20174;-80
2022/12/17 17:18:37;;;;;;;25.70;14.77;;;2.90;99.90;;;;;;5074069;28;20186;-77
2022/12/17 17:21:18;;;;;;;24.97;15.37;;;2.90;99.90;;;;;;5077884;28;20177;-80
2022/12/17 17:23:50;;;;;;;23.53;15.60;;;2.80;99.90;;;;;;5076854;28;20753;-79
2022/12/17 17:26:17;;;;;;;24.70;14.53;;;2.80;99.90;;;;;;5075380;28;20166;-75
2022/12/17 17:28:45;;;;;;;23.23;14.83;;;2.70;99.90;;;;;;5074581;28;20175;-81
2022/12/17 17:31:12;;;;;;;26.17;15.20;;;2.80;99.90;;;;;;5073528;28;20229;-79
2022/12/17 17:33:42;;;;;;;23.67;15.33;;;2.80;99.90;;;;;;5074666;28;20185;-80
2022/12/17 17:36:14;;;;;;;25.30;15.20;;;2.80;99.90;;;;;;5074922;28;20175;-80
2022/12/17 17:38:40;;;;;;;27.53;14.60;;;2.80;99.90;;;;;;5073743;28;20176;-81
2022/12/17 17:41:09;;;;;;;26.10;15.70;;;2.80;99.90;;;;;;5073488;28;20212;-80
2022/12/17 17:43:35;;;;;;;25.47;14.90;;;2.80;99.90;;;;;;5073210;28;20178;-79
2022/12/17 17:46:15;;;;;;;26.63;15.30;;;2.90;99.90;;;;;;5072340;28;20209;-78
2022/12/17 17:48:43;;;;;;;23.40;14.87;;;2.90;99.90;;;;;;5073171;28;20180;-77
2022/12/17 17:51:17;;;;;;;26.37;15.77;;;2.80;99.90;;;;;;5072548;28;20290;-81
2022/12/17 17:53:49;;;;;;;22.13;14.47;;;2.90;99.90;;;;;;5071979;28;20166;-79
2022/12/17 17:56:21;;;;;;;28.47;15.70;;;2.80;99.90;;;;;;5073731;28;20183;-79
2022/12/17 17:58:49;;;;;;;23.67;15.87;;;2.70;99.90;;;;;;5075584;28;20163;-78
2022/12/17 18:01:18;;;;;;;26.03;15.43;;;2.80;99.90;;;;;;5074220;28;20537;-81
2022/12/17 18:03:44;;;;;;;26.50;16.63;;;2.70;99.90;;;;;;5073415;28;20906;-78
2022/12/17 18:06:14;;;;;;;27.47;15.17;;;2.70;99.90;;;;;;5073498;28;20177;-80
2022/12/17 18:08:41;;;;;;;25.37;15.73;;;2.70;99.90;;;;;;5073006;28;20163;-77
2022/12/17 18:11:09;;;;;;;25.40;15.23;;;2.60;99.90;;;;;;5072627;28;20205;-84
2022/12/17 18:13:53;;;;;;;28.57;15.60;;;2.50;99.90;;;;;;5072947;28;20547;-79
2022/12/17 18:16:21;;;;;;;25.20;16.07;;;2.50;99.90;;;;;;5071487;28;20187;-82
2022/12/17 18:18:47;;;;;;;28.33;16.23;;;2.50;99.90;;;;;;5072652;28;20221;-83
2022/12/17 18:21:18;;;;;;;25.77;15.17;;;2.50;99.90;;;;;;5072424;28;20252;-81
2022/12/17 18:23:45;;;;;;;24.60;16.30;;;2.50;99.90;;;;;;5072124;28;20240;-78
2022/12/17 18:26:18;;;;;;;21.20;13.97;;;2.60;99.90;;;;;;5078114;28;20184;-77
2022/12/17 18:28:45;;;;;;;27.67;15.70;;;2.50;99.90;;;;;;5072993;28;20178;-80
2022/12/17 18:31:20;;;;;;;22.67;15.40;;;2.50;99.90;;;;;;5073098;28;20222;-80
2022/12/17 18:33:49;;;;;;;24.23;15.30;;;2.40;99.90;;;;;;5073569;28;20175;-78
2022/12/17 18:36:18;;;;;;;24.30;14.87;;;2.40;99.90;;;;;;5071267;28;20593;-79
2022/12/17 18:38:44;;;;;;;22.43;13.93;;;2.30;99.90;;;;;;5074068;28;20178;-79
2022/12/17 18:44:06;;;;;;;24.10;14.67;;;2.30;99.90;;;;;;5073890;28;20569;-78
2022/12/17 18:46:33;;;;;;;21.07;14.53;;;2.40;99.90;;;;;;5074572;28;20183;-77
2022/12/17 18:49:02;;;;;;;23.37;14.73;;;2.30;99.90;;;;;;5073327;28;20187;-78
2022/12/17 18:51:28;;;;;;;21.23;13.20;;;2.10;99.90;;;;;;5072166;28;20217;-80
2022/12/17 18:53:59;;;;;;;25.23;15.30;;;2.00;99.90;;;;;;5074430;28;20611;-82
2022/12/17 18:56:26;;;;;;;24.73;15.50;;;2.00;99.90;;;;;;5072909;28;20178;-78
2022/12/17 18:58:53;;;;;;;22.67;14.30;;;1.90;99.90;;;;;;5071234;28;20633;-78
2022/12/17 19:01:25;;;;;;;24.77;15.27;;;2.10;99.90;;;;;;5071789;28;20182;-78
2022/12/17 19:03:51;;;;;;;24.00;14.33;;;2.10;99.90;;;;;;5073457;28;20173;-78
2022/12/17 19:06:18;;;;;;;24.33;14.47;;;2.10;99.90;;;;;;5072913;28;20194;-79
2022/12/17 19:08:44;;;;;;;25.43;14.97;;;2.20;99.90;;;;;;5072450;28;20179;-80
2022/12/17 19:11:12;;;;;;;24.13;15.70;;;2.30;99.90;;;;;;5074155;28;20222;-80
2022/12/17 19:13:38;;;;;;;23.30;13.83;;;2.30;99.90;;;;;;5074531;28;20538;-78
2022/12/17 19:16:19;;;;;;;23.67;14.87;;;2.00;99.90;;;;;;5073140;28;20186;-82
2022/12/17 19:19:00;;;;;;;26.73;14.03;;;1.90;99.90;;;;;;5073093;28;20228;-82
2022/12/17 19:21:28;;;;;;;27.03;15.27;;;1.60;99.90;;;;;;5072059;28;20166;-81
2022/12/17 19:24:05;;;;;;;24.27;14.67;;;1.60;99.90;;;;;;5070909;28;20235;-82
2022/12/17 19:26:32;;;;;;;22.63;13.57;;;1.60;99.90;;;;;;5072593;28;20265;-83
2022/12/17 19:28:59;;;;;;;23.43;14.33;;;1.60;99.90;;;;;;5072430;28;20573;-84
2022/12/17 19:31:29;;;;;;;20.87;13.97;;;1.40;99.90;;;;;;5072979;28;20233;-80
2022/12/17 19:34:01;;;;;;;26.03;15.53;;;1.50;99.90;;;;;;5060391;28;20185;-82
2022/12/17 19:36:29;;;;;;;25.93;14.97;;;1.40;99.90;;;;;;5077274;28;20239;-82
2022/12/17 19:39:01;;;;;;;25.43;15.23;;;1.40;99.90;;;;;;5076476;28;20261;-81
2022/12/17 19:41:32;;;;;;;19.87;12.70;;;1.30;99.90;;;;;;5075865;28;20177;-80
2022/12/17 19:44:02;;;;;;;25.37;13.97;;;1.20;99.90;;;;;;5075621;28;20165;-83
2022/12/17 19:46:30;;;;;;;25.30;14.30;;;1.20;99.90;;;;;;5075238;28;20181;-79
2022/12/17 19:48:56;;;;;;;23.40;14.73;;;1.10;99.90;;;;;;5074982;28;20177;-80
2022/12/17 19:51:25;;;;;;;27.27;14.47;;;1.20;99.90;;;;;;5075295;28;20241;-81
2022/12/17 19:53:51;;;;;;;21.30;13.70;;;1.30;99.90;;;;;;5075694;28;20177;-83
2022/12/17 19:56:26;;;;;;;21.60;13.40;;;1.20;99.90;;;;;;5074744;28;20183;-82
2022/12/17 19:58:54;;;;;;;22.67;14.23;;;1.20;99.90;;;;;;5075108;28;20180;-80
2022/12/17 20:01:23;;;;;;;21.27;13.73;;;1.20;99.90;;;;;;5075948;28;20256;-82
2022/12/17 20:03:50;;;;;;;23.77;13.70;;;1.20;99.90;;;;;;5074940;28;20170;-80
2022/12/17 20:06:18;;;;;;;21.93;13.10;;;1.20;99.90;;;;;;5074958;28;20182;-84
2022/12/17 20:08:44;;;;;;;22.13;13.90;;;1.30;99.90;;;;;;5075182;28;20179;-80
2022/12/17 20:11:31;;;;;;;21.50;12.13;;;1.30;99.90;;;;;;5074494;28;20218;-78
2022/12/17 20:14:15;;;;;;;22.27;13.07;;;1.20;99.90;;;;;;5076286;28;20173;-77
2022/12/17 20:16:53;;;;;;;21.20;12.70;;;1.10;99.90;;;;;;5076327;28;20572;-77
2022/12/17 20:19:22;;;;;;;20.10;12.77;;;1.10;99.90;;;;;;5076099;28;20173;-82
2022/12/17 20:21:48;;;;;;;19.93;12.23;;;1.20;99.90;;;;;;5076041;28;20643;-81
2022/12/17 20:24:15;;;;;;;20.30;12.00;;;1.10;99.90;;;;;;5075896;28;20253;-82
2022/12/17 20:26:42;;;;;;;20.47;12.63;;;1.20;99.90;;;;;;5079478;28;20190;-81
2022/12/17 20:29:08;;;;;;;24.60;13.83;;;1.20;99.90;;;;;;5076689;28;20191;-80
2022/12/17 20:31:34;;;;;;;21.23;12.37;;;1.30;99.90;;;;;;5075435;28;20302;-81
2022/12/17 20:34:05;;;;;;;22.40;12.70;;;1.20;99.90;;;;;;5075295;28;20177;-82
2022/12/17 20:36:31;;;;;;;23.73;14.03;;;1.30;99.90;;;;;;5079419;28;20178;-82
2022/12/17 20:38:58;;;;;;;26.97;14.77;;;1.40;99.90;;;;;;5081275;28;20172;-80
2022/12/17 20:41:27;;;;;;;26.50;14.03;;;1.50;99.90;;;;;;5083204;28;20177;-81
2022/12/17 20:44:01;;;;;;;25.27;14.93;;;1.50;99.90;;;;;;5078665;28;20185;-81
2022/12/17 20:46:27;;;;;;;22.23;15.00;;;1.60;99.90;;;;;;5074944;28;20187;-82
2022/12/17 20:48:53;;;;;;;26.23;14.30;;;1.50;99.90;;;;;;5075058;28;20174;-79
2022/12/17 20:51:22;;;;;;;24.93;14.53;;;1.60;99.90;;;;;;5074314;28;20212;-78
2022/12/17 20:53:48;;;;;;;21.37;13.83;;;1.60;99.90;;;;;;5073227;28;20612;-77
2022/12/17 20:56:17;;;;;;;24.13;14.67;;;1.60;99.90;;;;;;5074802;28;20719;-79
2022/12/17 20:58:43;;;;;;;24.00;14.60;;;1.60;99.90;;;;;;5074093;28;20185;-82
2022/12/17 21:01:14;;;;;;;26.80;14.47;;;1.70;99.90;;;;;;5074206;28;20172;-82
2022/12/17 21:03:41;;;;;;;25.17;13.90;;;1.60;99.90;;;;;;5074181;28;20285;-84
2022/12/17 21:06:17;;;;;;;19.03;12.30;;;1.40;99.90;;;;;;5074541;28;20177;-82
2022/12/17 21:08:47;;;;;;;20.30;12.27;;;1.30;99.90;;;;;;5074383;28;20680;-83
2022/12/17 21:11:13;;;;;;;21.57;12.90;;;1.20;99.90;;;;;;5073660;28;20219;-81
2022/12/17 21:13:39;;;;;;;20.13;12.73;;;1.00;99.90;;;;;;5073610;28;20640;-83
2022/12/17 21:16:10;;;;;;;21.77;13.30;;;0.90;99.90;;;;;;5074359;28;20200;-81
2022/12/17 21:18:36;;;;;;;20.03;12.90;;;0.90;99.90;;;;;;5074406;28;20236;-80
2022/12/17 21:21:06;;;;;;;21.07;13.30;;;0.90;99.90;;;;;;5074659;28;20691;-81
2022/12/17 21:23:33;;;;;;;20.37;12.80;;;0.80;99.90;;;;;;5074390;28;20705;-77
2022/12/17 21:26:05;;;;;;;21.40;13.20;;;0.80;99.90;;;;;;5072860;28;20201;-79
2022/12/17 21:28:33;;;;;;;23.33;14.27;;;0.90;99.90;;;;;;5073361;28;20195;-78
2022/12/17 21:30:59;;;;;;;21.73;14.00;;;0.90;99.90;;;;;;5073231;28;20224;-82
2022/12/17 21:33:25;;;;;;;28.47;15.73;;;0.80;99.90;;;;;;5072302;28;20184;-77
2022/12/17 21:36:04;;;;;;;24.57;13.70;;;0.70;99.90;;;;;;5073068;28;20245;-79
2022/12/17 21:38:35;;;;;;;20.40;12.67;;;0.60;99.90;;;;;;5074044;28;20211;-83
2022/12/17 21:41:09;;;;;;;21.07;13.00;;;0.50;99.90;;;;;;5073863;28;20192;-79
2022/12/17 21:43:36;;;;;;;23.53;12.83;;;0.40;99.90;;;;;;5071467;28;20186;-80
2022/12/17 21:46:02;;;;;;;23.67;14.47;;;0.40;99.90;;;;;;5072685;28;20258;-81
2022/12/17 21:48:28;;;;;;;25.70;14.40;;;0.30;99.90;;;;;;5072815;28;20177;-81
2022/12/17 21:50:54;;;;;;;20.57;13.77;;;0.30;99.90;;;;;;5072764;28;20215;-79
2022/12/17 21:53:20;;;;;;;22.60;13.87;;;0.30;99.90;;;;;;5072796;28;20179;-80
2022/12/17 21:55:47;;;;;;;24.90;14.10;;;0.20;99.90;;;;;;5072485;28;20192;-80
2022/12/17 21:58:14;;;;;;;23.50;13.73;;;0.10;99.90;;;;;;5072883;28;20169;-80
2022/12/17 22:00:40;;;;;;;23.77;13.40;;;0.10;99.90;;;;;;5073531;28;20718;-83
2022/12/17 22:03:06;;;;;;;21.93;13.27;;;0.00;99.90;;;;;;5074319;28;20717;-84
2022/12/17 22:05:35;;;;;;;23.03;13.50;;;0.00;99.90;;;;;;5073324;28;20182;-83
2022/12/17 22:08:01;;;;;;;22.63;12.47;;;-0.10;99.90;;;;;;5073060;28;20228;-85
2022/12/17 22:10:27;;;;;;;20.20;12.13;;;-0.10;99.90;;;;;;5072417;28;20217;-81
2022/12/17 22:15:38;;;;;;;19.23;11.87;;;-0.20;99.90;;;;;;5072405;28;20208;-79
2022/12/17 22:18:05;;;;;;;22.77;12.97;;;-0.30;99.90;;;;;;5072720;28;20195;-80
2022/12/17 22:20:31;;;;;;;15.90;10.97;;;-0.30;99.90;;;;;;5071244;28;20197;-80
2022/12/17 22:22:56;;;;;;;19.27;10.87;;;-0.40;99.90;;;;;;5073773;28;20172;-79
2022/12/17 22:25:22;;;;;;;19.50;11.53;;;-0.50;99.90;;;;;;5075044;28;20203;-84
2022/12/17 22:27:48;;;;;;;18.30;10.80;;;-0.50;99.90;;;;;;5072808;28;20179;-80
2022/12/17 22:33:01;;;;;;;19.40;11.20;;;-0.50;99.90;;;;;;5073052;28;20171;-80
2022/12/17 22:35:35;;;;;;;16.30;10.33;;;-0.30;99.90;;;;;;5072275;28;20177;-81
2022/12/17 22:38:03;;;;;;;18.23;10.97;;;-0.50;99.90;;;;;;5073246;28;20187;-80
2022/12/17 22:40:30;;;;;;;19.10;11.33;;;-0.50;99.90;;;;;;5077584;28;20175;-80
2022/12/17 22:45:41;;;;;;;18.43;10.47;;;-0.60;99.90;;;;;;5072494;28;20174;-85
2022/12/17 22:48:09;;;;;;;19.20;11.10;;;-0.70;99.90;;;;;;5072740;28;20184;-80
2022/12/17 22:50:35;;;;;;;14.93;9.83;;;-0.80;99.90;;;;;;5075081;28;20273;-83
2022/12/17 22:53:01;;;;;;;16.10;10.13;;;-0.80;99.90;;;;;;5078532;28;20181;-79
2022/12/17 22:55:27;;;;;;;14.53;10.07;;;-0.70;99.90;;;;;;5081600;28;20173;-80
2022/12/17 22:57:53;;;;;;;16.77;10.30;;;-0.70;99.90;;;;;;5079445;28;20184;-81
2022/12/17 23:00:30;;;;;;;13.13;9.80;;;-0.70;99.90;;;;;;5074280;28;20168;-79
2022/12/17 23:02:56;;;;;;;12.90;8.93;;;-0.70;99.90;;;;;;5073445;28;20674;-83
2022/12/17 23:05:23;;;;;;;16.17;9.60;;;-0.70;99.90;;;;;;5073443;28;20172;-81
2022/12/17 23:07:49;;;;;;;16.13;9.60;;;-0.80;99.90;;;;;;5075944;28;20218;-83
2022/12/17 23:10:16;;;;;;;14.07;9.73;;;-0.80;99.90;;;;;;5076815;28;20208;-81
2022/12/17 23:12:54;;;;;;;16.07;9.87;;;-0.70;99.90;;;;;;5081228;28;20185;-80
2022/12/17 23:15:35;;;;;;;16.23;10.13;;;-0.70;99.90;;;;;;5094904;28;20239;-79
2022/12/17 23:18:05;;;;;;;14.63;9.67;;;-0.70;99.90;;;;;;5077468;28;20193;-82
2022/12/17 23:20:33;;;;;;;15.33;8.97;;;-0.80;99.90;;;;;;5084313;28;20163;-83
2022/12/17 23:22:59;;;;;;;13.90;9.47;;;-0.80;99.90;;;;;;5096926;28;20172;-82
2022/12/17 23:25:28;;;;;;;14.07;9.30;;;-0.90;99.90;;;;;;5096980;28;20168;-83
2022/12/17 23:27:54;;;;;;;17.30;10.03;;;-1.00;99.90;;;;;;5096578;28;20174;-83
2022/12/17 23:30:20;;;;;;;11.77;9.13;;;-1.00;99.90;;;;;;5078108;28;20224;-84
2022/12/17 23:32:46;;;;;;;13.57;9.33;;;-1.10;99.90;;;;;;5076062;28;20169;-83
2022/12/17 23:35:13;;;;;;;20.47;11.47;;;-0.80;99.90;;;;;;5075928;28;20171;-85
2022/12/17 23:37:40;;;;;;;18.07;9.77;;;-0.70;99.90;;;;;;5075913;28;20251;-86
2022/12/17 23:40:08;;;;;;;14.63;9.73;;;-0.80;99.90;;;;;;5076245;28;20193;-85
2022/12/17 23:42:34;;;;;;;15.60;9.87;;;-0.90;99.90;;;;;;5076334;28;20213;-84
2022/12/17 23:45:02;;;;;;;15.77;9.60;;;-0.90;99.90;;;;;;5076693;28;20172;-84
2022/12/17 23:47:29;;;;;;;14.43;9.90;;;-1.00;99.90;;;;;;5097538;28;20186;-85
2022/12/17 23:49:55;;;;;;;11.93;8.83;;;-1.00;99.90;;;;;;5097038;28;20195;-81
2022/12/17 23:52:21;;;;;;;11.40;7.60;;;-1.10;99.90;;;;;;5096082;28;20207;-79
2022/12/17 23:54:47;;;;;;;14.53;9.27;;;-1.20;99.90;;;;;;5096111;28;20199;-83
2022/12/17 23:57:12;;;;;;;14.23;9.43;;;-1.00;99.90;;;;;;5096833;28;20174;-80
2022/12/17 23:59:38;;;;;;;15.60;9.07;;;-0.90;99.90;;;;;;5103384;28;20201;-81
